Time;durP1;ratioP1;P1;durP2;ratioP2;P2;SDS_P1;SDS_P2;PMS_P1;PMS_P2;Temp;Humidity;BMP_temperature;BMP_pressure;BME280_temperature;BME280_humidity;BME280_pressure;Samples;Min_cycle;Max_cycle;Signal;HPM_P1;HPM_P2
2021/11/18 00:00:33;;;;;;;;;;;;;;;-5.18;100.00;100045.79;1732488;81;20441;-72
2021/11/18 00:03:00;;;;;;;;;;;;;;;-5.19;100.00;100044.64;1733170;81;20143;-72
2021/11/18 00:05:28;;;;;;;;;;;;;;;-5.19;100.00;100047.26;1731184;81;20438;-72
2021/11/18 00:07:58;;;;;;;;;;;;;;;-5.20;100.00;100040.36;1733322;81;20424;-73
2021/11/18 00:10:33;;;;;;;;;;;;;;;-5.23;100.00;100040.64;1731282;81;21809;-73
2021/11/18 00:13:04;;;;;;;;;;;;;;;-5.25;100.00;100037.34;1732981;81;20128;-73
2021/11/18 00:15:31;;;;;;;;;;;;;;;-5.21;100.00;100041.34;1731732;81;20517;-71
2021/11/18 00:18:00;;;;;;;;;;;;;;;-5.22;100.00;100040.52;1731298;81;20500;-72
2021/11/18 00:20:30;;;;;;;;;;;;;;;-5.26;100.00;100039.13;1747283;81;20124;-72
2021/11/18 00:22:56;;;;;;;;;;;;;;;-5.27;100.00;100035.34;1741160;81;21191;-72
2021/11/18 00:25:23;;;;;;;;;;;;;;;-5.26;100.00;100035.20;1743047;81;20710;-70
2021/11/18 00:27:50;;;;;;;;;;;;;;;-5.24;100.00;100035.89;1739855;81;20416;-72
2021/11/18 00:30:18;;;;;;;;;;;;;;;-5.24;100.00;100031.16;1740513;81;20141;-72
2021/11/18 00:32:44;;;;;;;;;;;;;;;-5.22;100.00;100030.50;1743241;81;20101;-73
2021/11/18 00:35:15;;;;;;;;;;;;;;;-5.23;100.00;100030.99;1746236;81;21183;-72
2021/11/18 00:37:43;;;;;;;;;;;;;;;-5.25;100.00;100034.72;1746193;81;20173;-72
2021/11/18 00:40:12;;;;;;;;;;;;;;;-5.29;100.00;100034.19;1736110;81;20128;-72
2021/11/18 00:42:39;;;;;;;;;;;;;;;-5.36;100.00;100033.09;1737620;81;20542;-72
2021/11/18 00:45:07;;;;;;;;;;;;;;;-5.41;100.00;100034.81;1738054;81;20123;-72
2021/11/18 00:47:34;;;;;;;;;;;;;;;-5.44;100.00;100037.71;1742339;81;21153;-72
2021/11/18 00:50:04;;;;;;;;;;;;;;;-5.48;100.00;100033.71;1736794;81;20124;-72
2021/11/18 00:52:30;;;;;;;;;;;;;;;-5.51;100.00;100028.77;1735076;81;20420;-73
2021/11/18 00:54:57;;;;;;;;;;;;;;;-5.50;100.00;100033.02;1740511;81;20613;-72
2021/11/18 00:57:25;;;;;;;;;;;;;;;-5.51;100.00;100030.53;1741087;81;20102;-72
2021/11/18 00:59:52;;;;;;;;;;;;;;;-5.52;100.00;100031.02;1738431;81;20972;-72
2021/11/18 01:02:21;;;;;;;;;;;;;;;-5.53;100.00;100033.80;1733593;81;20347;-72
2021/11/18 01:04:48;;;;;;;;;;;;;;;-5.55;100.00;100031.30;1696711;84;20098;-71
2021/11/18 01:07:16;;;;;;;;;;;;;;;-5.56;100.00;100029.66;1705826;84;20119;-71
2021/11/18 01:09:43;;;;;;;;;;;;;;;-5.59;100.00;100035.14;1706581;82;20102;-72
2021/11/18 01:12:11;;;;;;;;;;;;;;;-5.65;100.00;100023.45;1700977;84;22223;-72
2021/11/18 01:14:38;;;;;;;;;;;;;;;-5.72;100.00;100023.66;1680126;84;20102;-72
2021/11/18 01:17:05;;;;;;;;;;;;;;;-5.76;100.00;100027.98;1730206;82;20081;-72
2021/11/18 01:19:32;;;;;;;;;;;;;;;-5.86;100.00;100024.88;1730534;82;20144;-72
2021/11/18 01:22:00;;;;;;;;;;;;;;;-5.91;100.00;100024.46;1729996;82;20112;-72
2021/11/18 01:24:29;;;;;;;;;;;;;;;-5.96;100.00;100024.08;1726216;82;21270;-71
2021/11/18 01:27:15;;;;;;;;;;;;;;;-5.97;100.00;100022.44;1712661;81;20235;-71
2021/11/18 01:29:42;;;;;;;;;;;;;;;-5.98;100.00;100012.11;1727210;82;20520;-71
2021/11/18 01:32:10;;;;;;;;;;;;;;;-5.96;100.00;100017.55;1734424;82;20115;-71
2021/11/18 01:34:38;;;;;;;;;;;;;;;-5.94;100.00;100018.73;1743420;82;20110;-70
2021/11/18 01:37:05;;;;;;;;;;;;;;;-5.92;100.00;100017.59;1750757;81;21160;-70
2021/11/18 01:39:32;;;;;;;;;;;;;;;-5.87;100.00;100023.73;1752928;81;20103;-71
2021/11/18 01:41:59;;;;;;;;;;;;;;;-5.84;100.00;100026.88;1748918;81;20146;-71
2021/11/18 01:44:33;;;;;;;;;;;;;;;-5.83;100.00;100028.55;1750596;82;20161;-71
2021/11/18 01:47:01;;;;;;;;;;;;;;;-5.80;100.00;100019.61;1728834;81;20141;-71
2021/11/18 01:49:28;;;;;;;;;;;;;;;-5.78;100.00;100015.53;1739313;82;21564;-72
2021/11/18 01:51:57;;;;;;;;;;;;;;;-5.78;100.00;100010.30;1739474;82;20083;-71
2021/11/18 01:54:29;;;;;;;;;;;;;;;-5.77;100.00;100008.05;1726919;82;20111;-71
2021/11/18 01:56:56;;;;;;;;;;;;;;;-5.74;100.00;100006.45;1741123;82;20076;-71
2021/11/18 01:59:29;;;;;;;;;;;;;;;-5.76;100.00;100017.53;1732096;82;20112;-71
2021/11/18 02:02:00;;;;;;;;;;;;;;;-5.82;100.00;100014.98;1708629;82;21170;-72
2021/11/18 02:04:50;;;;;;;;;;;;;;;-5.92;100.00;100017.59;1668797;85;20100;-71
2021/11/18 02:07:19;;;;;;;;;;;;;;;-5.94;100.00;100013.50;1634237;86;20181;-71
2021/11/18 02:09:48;;;;;;;;;;;;;;;-5.93;100.00;100012.49;1666707;84;20156;-71
2021/11/18 02:12:22;;;;;;;;;;;;;;;-5.98;100.00;100000.34;1649226;85;20532;-71
2021/11/18 02:14:50;;;;;;;;;;;;;;;-6.00;100.00;99997.03;1676927;85;21162;-70
2021/11/18 02:17:18;;;;;;;;;;;;;;;-6.02;100.00;99999.80;1669151;85;20159;-71
2021/11/18 02:20:00;;;;;;;;;;;;;;;-6.04;100.00;99999.93;1664765;86;20424;-71
2021/11/18 02:22:27;;;;;;;;;;;;;;;-6.06;100.00;99990.58;1661768;86;20514;-71
2021/11/18 02:25:00;;;;;;;;;;;;;;;-6.11;100.00;99983.14;1664066;86;20162;-71
2021/11/18 02:27:29;;;;;;;;;;;;;;;-6.10;100.00;99976.97;1660218;85;21790;-71
2021/11/18 02:29:58;;;;;;;;;;;;;;;-6.14;100.00;99974.27;1653891;85;20201;-70
2021/11/18 02:32:29;;;;;;;;;;;;;;;-6.21;100.00;99974.95;1654167;86;20203;-71
2021/11/18 02:34:59;;;;;;;;;;;;;;;-6.27;100.00;99980.22;1660288;83;20148;-71
2021/11/18 02:37:27;;;;;;;;;;;;;;;-6.29;100.00;99974.33;1730158;81;20137;-71
2021/11/18 02:39:55;;;;;;;;;;;;;;;-6.32;100.00;99974.12;1756035;81;21159;-72
2021/11/18 02:42:23;;;;;;;;;;;;;;;-6.34;100.00;99976.03;1742484;81;20203;-71
2021/11/18 02:44:50;;;;;;;;;;;;;;;-6.35;100.00;99962.61;1758870;81;20151;-71
2021/11/18 02:47:17;;;;;;;;;;;;;;;-6.36;100.00;99964.89;1760638;81;20196;-71
2021/11/18 02:49:46;;;;;;;;;;;;;;;-6.38;100.00;99960.76;1764320;81;20129;-71
2021/11/18 02:52:20;;;;;;;;;;;;;;;-6.37;100.00;99962.40;1764130;81;21147;-71
2021/11/18 02:54:47;;;;;;;;;;;;;;;-6.35;100.00;99958.69;1735598;82;20186;-71
2021/11/18 02:57:14;;;;;;;;;;;;;;;-6.32;100.00;99958.90;1736961;81;20150;-71
2021/11/18 02:59:43;;;;;;;;;;;;;;;-6.28;100.00;99962.91;1739467;81;20097;-71
2021/11/18 03:02:09;;;;;;;;;;;;;;;-6.23;100.00;99964.63;1738066;81;20127;-71
2021/11/18 03:04:37;;;;;;;;;;;;;;;-6.22;100.00;99965.45;1719357;82;21131;-71
2021/11/18 03:07:07;;;;;;;;;;;;;;;-6.24;100.00;99967.39;1737979;81;20126;-71
2021/11/18 03:09:34;;;;;;;;;;;;;;;-6.26;100.00;99968.83;1739669;81;20071;-71
2021/11/18 03:12:02;;;;;;;;;;;;;;;-6.27;100.00;99966.70;1744053;81;20488;-69
2021/11/18 03:14:30;;;;;;;;;;;;;;;-6.31;100.00;99960.08;1731611;81;20148;-71
2021/11/18 03:16:58;;;;;;;;;;;;;;;-6.32;100.00;99956.28;1737020;81;21834;-71
2021/11/18 03:19:27;;;;;;;;;;;;;;;-6.32;100.00;99952.37;1764574;81;20452;-71
2021/11/18 03:21:54;;;;;;;;;;;;;;;-6.35;100.00;99948.73;1765350;81;20429;-71
2021/11/18 03:24:23;;;;;;;;;;;;;;;-6.37;100.00;99944.11;1761197;81;20149;-71
2021/11/18 03:26:51;;;;;;;;;;;;;;;-6.39;100.00;99948.19;1750791;81;20155;-71
2021/11/18 03:29:19;;;;;;;;;;;;;;;-6.44;100.00;99945.61;1729844;82;21156;-71
2021/11/18 03:31:47;;;;;;;;;;;;;;;-6.53;100.00;99942.86;1726129;82;20821;-71
2021/11/18 03:34:16;;;;;;;;;;;;;;;-6.59;100.00;99948.63;1714891;81;20093;-72
2021/11/18 03:36:43;;;;;;;;;;;;;;;-6.56;100.00;99941.00;1725497;82;20363;-71
2021/11/18 03:39:11;;;;;;;;;;;;;;;-6.52;100.00;99934.05;1714543;82;20469;-71
2021/11/18 03:41:41;;;;;;;;;;;;;;;-6.49;100.00;99935.59;1749977;81;21797;-71
2021/11/18 03:44:10;;;;;;;;;;;;;;;-6.47;100.00;99934.50;1700038;83;20236;-71
2021/11/18 03:46:41;;;;;;;;;;;;;;;-6.42;100.00;99931.94;1698358;83;20091;-71
2021/11/18 03:49:10;;;;;;;;;;;;;;;-6.42;100.00;99928.84;1725392;81;20098;-71
2021/11/18 03:51:39;;;;;;;;;;;;;;;-6.41;100.00;99930.52;1707257;84;20115;-71
2021/11/18 03:54:07;;;;;;;;;;;;;;;-6.42;100.00;99931.94;1707982;82;21163;-71
2021/11/18 03:56:39;;;;;;;;;;;;;;;-6.48;100.00;99930.22;1708941;82;20100;-71
2021/11/18 03:59:08;;;;;;;;;;;;;;;-6.46;100.00;99930.09;1735746;82;20153;-71
2021/11/18 04:01:35;;;;;;;;;;;;;;;-6.47;100.00;99933.19;1735783;82;20120;-70
2021/11/18 04:04:06;;;;;;;;;;;;;;;-6.49;100.00;99935.59;1735008;82;20096;-70
2021/11/18 04:06:33;;;;;;;;;;;;;;;-6.53;100.00;99944.64;1734451;82;21168;-71
2021/11/18 04:09:03;;;;;;;;;;;;;;;-6.56;100.00;99943.62;1730062;82;20088;-71
2021/11/18 04:11:31;;;;;;;;;;;;;;;-6.62;100.00;99942.83;1729566;82;20189;-71
2021/11/18 04:13:59;;;;;;;;;;;;;;;-6.64;100.00;99935.13;1725791;82;20165;-72
2021/11/18 04:16:27;;;;;;;;;;;;;;;-6.70;100.00;99935.67;1729223;82;20100;-71
2021/11/18 04:18:55;;;;;;;;;;;;;;;-6.75;100.00;99931.33;1733997;82;21831;-71
2021/11/18 04:21:24;;;;;;;;;;;;;;;-6.79;100.00;99928.62;1731223;82;20462;-71
2021/11/18 04:23:51;;;;;;;;;;;;;;;-6.79;100.00;99921.61;1729495;83;20454;-72
2021/11/18 04:26:17;;;;;;;;;;;;;;;-6.78;100.00;99920.67;1713998;82;20112;-72
2021/11/18 04:28:45;;;;;;;;;;;;;;;-6.79;100.00;99917.70;1733693;81;20116;-71
2021/11/18 04:31:16;;;;;;;;;;;;;;;-6.79;100.00;99918.19;1749920;82;21111;-71
2021/11/18 04:33:43;;;;;;;;;;;;;;;-6.78;100.00;99912.02;1741292;82;20097;-71
2021/11/18 04:36:11;;;;;;;;;;;;;;;-6.84;100.00;99904.23;1731691;82;20144;-71
2021/11/18 04:38:39;;;;;;;;;;;;;;;-6.84;100.00;99905.53;1739956;82;20159;-71
2021/11/18 04:41:06;;;;;;;;;;;;;;;-6.84;100.00;99899.00;1729791;83;20177;-71
2021/11/18 04:43:34;;;;;;;;;;;;;;;-6.82;100.00;99889.27;1739775;82;21456;-72
2021/11/18 04:46:02;;;;;;;;;;;;;;;-6.80;100.00;99892.56;1731677;81;20086;-72
2021/11/18 04:48:29;;;;;;;;;;;;;;;-6.80;100.00;99887.83;1738325;81;20569;-72
2021/11/18 04:50:56;;;;;;;;;;;;;;;-6.80;100.00;99884.73;1747205;81;20099;-72
2021/11/18 04:53:26;;;;;;;;;;;;;;;-6.82;100.00;99885.34;1738199;81;20204;-71
2021/11/18 04:55:53;;;;;;;;;;;;;;;-6.85;100.00;99882.19;1745440;81;21183;-71
2021/11/18 04:58:21;;;;;;;;;;;;;;;-6.89;100.00;99895.97;1740038;81;20530;-71
2021/11/18 05:00:51;;;;;;;;;;;;;;;-6.90;100.00;99900.38;1736775;81;20417;-71
2021/11/18 05:03:19;;;;;;;;;;;;;;;-6.85;100.00;99897.36;1728642;83;20185;-72
2021/11/18 05:05:49;;;;;;;;;;;;;;;-6.82;100.00;99901.49;1729893;82;20154;-71
2021/11/18 05:08:16;;;;;;;;;;;;;;;-6.81;100.00;99900.06;1729886;82;21169;-71
2021/11/18 05:10:45;;;;;;;;;;;;;;;-6.83;100.00;99903.28;1716434;83;20145;-71
2021/11/18 05:13:14;;;;;;;;;;;;;;;-6.83;100.00;99908.50;1729972;82;20131;-71
2021/11/18 05:15:44;;;;;;;;;;;;;;;-6.81;100.00;99906.59;1729286;82;20443;-71
2021/11/18 05:18:11;;;;;;;;;;;;;;;-6.79;100.00;99909.87;1705625;83;20094;-71
2021/11/18 05:20:38;;;;;;;;;;;;;;;-6.79;100.00;99914.27;1739233;82;21858;-70
2021/11/18 05:23:05;;;;;;;;;;;;;;;-6.79;100.00;99917.70;1729863;82;20248;-70
2021/11/18 05:25:33;;;;;;;;;;;;;;;-6.78;100.00;99915.94;1713742;83;20458;-71
2021/11/18 05:28:01;;;;;;;;;;;;;;;-6.76;100.00;99919.22;1741269;81;20094;-71
2021/11/18 05:30:28;;;;;;;;;;;;;;;-6.71;100.00;99915.27;1751213;81;20206;-71
2021/11/18 05:32:57;;;;;;;;;;;;;;;-6.67;100.00;99921.03;1729729;82;21849;-71
2021/11/18 05:35:27;;;;;;;;;;;;;;;-6.66;100.00;99920.09;1734180;81;20128;-71
2021/11/18 05:38:16;;;;;;;;;;;;;;;-6.58;100.00;99925.95;1733399;81;20121;-70
2021/11/18 05:40:44;;;;;;;;;;;;;;;-6.55;100.00;99923.06;1750603;81;20506;-72
2021/11/18 05:43:16;;;;;;;;;;;;;;;-6.54;100.00;99927.30;1756456;81;20177;-71
2021/11/18 05:45:43;;;;;;;;;;;;;;;-6.48;100.00;99921.08;1754351;81;21147;-70
2021/11/18 05:48:13;;;;;;;;;;;;;;;-6.47;100.00;99913.60;1733672;81;20212;-71
2021/11/18 05:50:44;;;;;;;;;;;;;;;-6.44;100.00;99916.42;1761055;81;20143;-70
2021/11/18 05:53:09;;;;;;;;;;;;;;;-6.38;100.00;99921.58;1730829;81;20169;-71
2021/11/18 05:55:38;;;;;;;;;;;;;;;-6.22;100.00;99917.11;1731435;81;20137;-71
2021/11/18 05:58:04;;;;;;;;;;;;;;;-6.13;100.00;99926.75;1741226;81;21139;-71
2021/11/18 06:00:35;;;;;;;;;;;;;;;-6.09;100.00;99930.75;1758712;81;20535;-71
2021/11/18 06:03:02;;;;;;;;;;;;;;;-5.99;100.00;99930.75;1752720;81;20093;-71
2021/11/18 06:05:32;;;;;;;;;;;;;;;-5.89;100.00;99933.66;1734655;81;20166;-72
2021/11/18 06:07:58;;;;;;;;;;;;;;;-5.78;100.00;99926.17;1747502;81;20108;-71
2021/11/18 06:10:26;;;;;;;;;;;;;;;-5.65;100.00;99917.54;1734202;83;21132;-74
2021/11/18 06:12:55;;;;;;;;;;;;;;;-5.56;100.00;99918.95;1758333;81;20173;-72
2021/11/18 06:15:28;;;;;;;;;;;;;;;-5.47;100.00;99915.02;1752748;81;20439;-73
2021/11/18 06:17:57;;;;;;;;;;;;;;;-5.37;100.00;99908.94;1732089;81;20195;-71
2021/11/18 06:20:24;;;;;;;;;;;;;;;-5.27;100.00;99909.23;1730415;81;20511;-74
2021/11/18 06:22:51;;;;;;;;;;;;;;;-5.17;100.00;99907.44;1739324;81;21076;-73
2021/11/18 06:25:20;;;;;;;;;;;;;;;-5.03;100.00;99906.61;1732063;81;20437;-72
2021/11/18 06:27:48;;;;;;;;;;;;;;;-4.92;100.00;99917.36;1745683;81;20085;-73
2021/11/18 06:30:21;;;;;;;;;;;;;;;-4.83;100.00;99921.25;1739923;81;20447;-73
2021/11/18 06:32:48;;;;;;;;;;;;;;;-4.76;100.00;99920.19;1739599;81;20750;-73
2021/11/18 06:35:14;;;;;;;;;;;;;;;-4.63;100.00;99923.31;1736363;81;21533;-74
2021/11/18 06:37:42;;;;;;;;;;;;;;;-4.52;100.00;99919.64;1740000;81;20724;-72
2021/11/18 06:40:11;;;;;;;;;;;;;;;-4.48;100.00;99917.08;1740004;81;20200;-73
2021/11/18 06:42:41;;;;;;;;;;;;;;;-4.38;100.00;99903.91;1744396;81;20428;-71
2021/11/18 06:45:10;;;;;;;;;;;;;;;-4.30;100.00;99913.16;1733997;81;20589;-73
2021/11/18 06:47:37;;;;;;;;;;;;;;;-4.22;100.00;99913.22;1743911;81;21067;-72
2021/11/18 06:50:25;;;;;;;;;;;;;;;-4.14;100.00;99917.25;1732459;81;20155;-73
2021/11/18 06:52:54;;;;;;;;;;;;;;;-4.11;100.00;99909.08;1673223;84;20208;-74
2021/11/18 06:55:25;;;;;;;;;;;;;;;-4.04;100.00;99904.53;1673406;84;20149;-73
2021/11/18 06:57:54;;;;;;;;;;;;;;;-3.95;100.00;99908.87;1672129;84;20232;-73
2021/11/18 07:00:24;;;;;;;;;;;;;;;-3.89;100.00;99909.11;1659004;85;21221;-74
2021/11/18 07:02:51;;;;;;;;;;;;;;;-3.82;100.00;99913.27;1663303;84;20184;-73
2021/11/18 07:05:17;;;;;;;;;;;;;;;-3.77;100.00;99909.70;1675341;84;20133;-73
2021/11/18 07:07:57;;;;;;;;;;;;;;;-3.65;100.00;99902.37;1674913;84;20433;-76
2021/11/18 07:10:24;;;;;;;;;;;;;;;-3.53;100.00;99909.05;1690854;84;20145;-73
2021/11/18 07:13:02;;;;;;;;;;;;;;;-3.48;100.00;99896.75;1687904;84;21966;-74
2021/11/18 07:15:30;;;;;;;;;;;;;;;-3.39;100.00;99897.14;1688133;83;20246;-74
2021/11/18 07:17:58;;;;;;;;;;;;;;;-3.36;100.00;99896.83;1693570;84;20523;-71
2021/11/18 07:20:25;;;;;;;;;;;;;;;-3.34;100.00;99888.31;1695097;84;20139;-72
2021/11/18 07:22:52;;;;;;;;;;;;;;;-3.29;100.00;99895.73;1693418;84;20192;-72
2021/11/18 07:25:23;;;;;;;;;;;;;;;-3.22;100.00;99903.31;1693320;82;21857;-73
2021/11/18 07:27:51;;;;;;;;;;;;;;;-3.13;100.00;99899.76;1694584;84;20524;-71
2021/11/18 07:30:19;;;;;;;;;;;;;;;-3.03;100.00;99908.83;1691754;83;20180;-70
2021/11/18 07:32:47;;;;;;;;;;;;;;;-2.98;100.00;99913.12;1639205;86;20135;-72
2021/11/18 07:35:15;;;;;;;;;;;;;;;-2.90;100.00;99909.20;1688442;84;20150;-74
2021/11/18 07:37:43;;;;;;;;;;;;;;;-2.83;100.00;99906.28;1694925;84;21174;-72
2021/11/18 07:40:13;;;;;;;;;;;;;;;-2.83;100.00;99898.90;1693025;84;20222;-75
2021/11/18 07:42:41;;;;;;;;;;;;;;;-2.77;100.00;99900.88;1687351;84;20177;-71
2021/11/18 07:45:21;;;;;;;;;;;;;;;-2.75;100.00;99899.41;1611120;87;20111;-74
2021/11/18 07:47:52;;;;;;;;;;;;;;;-2.70;100.00;99901.89;1693621;83;20579;-72
2021/11/18 07:50:20;;;;;;;;;;;;;;;-2.63;100.00;99897.64;1694382;84;22221;-74
2021/11/18 07:52:47;;;;;;;;;;;;;;;-2.56;100.00;99900.96;1657300;84;20250;-72
2021/11/18 07:55:17;;;;;;;;;;;;;;;-2.59;100.00;99901.61;1656215;84;20156;-69
2021/11/18 07:57:47;;;;;;;;;;;;;;;-2.56;100.00;99905.72;1677171;84;20130;-73
2021/11/18 08:00:15;;;;;;;;;;;;;;;-2.51;100.00;99897.36;1669613;84;20168;-75
2021/11/18 08:02:49;;;;;;;;;;;;;;;-2.50;100.00;99896.36;1672024;84;21160;-72
2021/11/18 08:05:20;;;;;;;;;;;;;;;-2.49;100.00;99893.58;1671350;84;20139;-72
2021/11/18 08:08:05;;;;;;;;;;;;;;;-2.39;100.00;99891.63;1706359;83;20433;-73
2021/11/18 08:10:31;;;;;;;;;;;;;;;-2.33;100.00;99890.65;1672857;85;20208;-73
2021/11/18 08:13:00;;;;;;;;;;;;;;;-2.24;100.00;99889.69;1658976;84;20495;-73
2021/11/18 08:15:27;;;;;;;;;;;;;;;-2.18;100.00;99890.33;1674564;85;21069;-73
2021/11/18 08:17:54;;;;;;;;;;;;;;;-2.18;100.00;99887.70;1675436;85;20142;-71
2021/11/18 08:20:22;;;;;;;;;;;;;;;-2.13;100.00;99889.84;1676502;85;20563;-75
2021/11/18 08:22:49;;;;;;;;;;;;;;;-2.02;100.00;99894.80;1663336;85;20176;-74
2021/11/18 08:25:17;;;;;;;;;;;;;;;-2.04;100.00;99893.63;1608412;87;20183;-74
2021/11/18 08:27:45;;;;;;;;;;;;;;;-1.92;100.00;99890.69;1611079;87;21156;-73
2021/11/18 08:30:15;;;;;;;;;;;;;;;-1.83;100.00;99883.13;1636695;86;20151;-73
2021/11/18 08:32:44;;;;;;;;;;;;;;;-1.82;100.00;99890.03;1631799;86;20183;-69
2021/11/18 08:35:13;;;;;;;;;;;;;;;-1.78;100.00;99883.45;1632417;86;20430;-72
2021/11/18 08:37:42;;;;;;;;;;;;;;;-1.74;100.00;99885.59;1634560;87;20202;-71
2021/11/18 08:40:10;;;;;;;;;;;;;;;-1.67;100.00;99884.41;1643527;87;21179;-71
2021/11/18 08:42:37;;;;;;;;;;;;;;;-1.59;100.00;99885.74;1662404;86;20093;-70
2021/11/18 08:45:08;;;;;;;;;;;;;;;-1.62;100.00;99893.13;1634114;86;20209;-70
2021/11/18 08:47:37;;;;;;;;;;;;;;;-1.56;100.00;99892.48;1612915;87;20509;-72
2021/11/18 08:50:08;;;;;;;;;;;;;;;-1.47;100.00;99891.95;1622398;87;20517;-70
2021/11/18 08:52:36;;;;;;;;;;;;;;;-1.47;100.00;99892.80;1660369;84;21181;-72
2021/11/18 08:55:06;;;;;;;;;;;;;;;-1.35;100.00;99889.30;1648023;84;21104;-68
2021/11/18 08:57:35;;;;;;;;;;;;;;;-1.33;100.00;99897.36;1639124;85;20546;-72
2021/11/18 09:00:10;;;;;;;;;;;;;;;-1.32;100.00;99896.38;1677288;83;20180;-70
2021/11/18 09:02:39;;;;;;;;;;;;;;;-1.26;100.00;99894.06;1643763;85;20239;-71
2021/11/18 09:05:07;;;;;;;;;;;;;;;-1.19;100.00;99895.85;1674376;84;21808;-69
2021/11/18 09:07:35;;;;;;;;;;;;;;;-1.15;100.00;99898.48;1628798;85;20206;-71
2021/11/18 09:10:03;;;;;;;;;;;;;;;-1.00;100.00;99897.28;1673363;84;20155;-69
2021/11/18 09:12:30;;;;;;;;;;;;;;;-0.99;100.00;99898.09;1674987;84;20492;-71
2021/11/18 09:14:57;;;;;;;;;;;;;;;-0.91;100.00;99893.63;1682692;84;20221;-70
2021/11/18 09:17:26;;;;;;;;;;;;;;;-0.79;100.00;99897.19;1664786;84;21075;-72
2021/11/18 09:19:56;;;;;;;;;;;;;;;-0.90;100.00;99904.98;1656609;82;20171;-72
2021/11/18 09:22:25;;;;;;;;;;;;;;;-0.85;100.00;99897.89;1694065;84;20491;-77
2021/11/18 09:24:55;;;;;;;;;;;;;;;-0.78;100.00;99890.95;1693444;82;20203;-71
2021/11/18 09:27:33;;;;;;;;;;;;;;;-0.62;100.00;99893.48;1695855;83;20174;-74
2021/11/18 09:30:04;;;;;;;;;;;;;;;-0.50;100.00;99899.19;1700143;83;21171;-73
2021/11/18 09:32:34;;;;;;;;;;;;;;;-0.41;100.00;99903.43;1694119;83;20208;-75
2021/11/18 09:35:06;;;;;;;;;;;;;;;-0.37;100.00;99886.25;1692941;83;20230;-75
2021/11/18 09:37:32;;;;;;;;;;;;;;;-0.34;100.00;99890.34;1660644;84;20241;-73
2021/11/18 09:39:59;;;;;;;;;;;;;;;-0.30;100.00;99885.88;1670205;84;20173;-71
2021/11/18 09:42:30;;;;;;;;;;;;;;;-0.23;100.00;99875.45;1685148;84;21750;-73
2021/11/18 09:45:22;;;;;;;;;;;;;;;-0.09;100.00;99872.55;1680472;83;20179;-74
2021/11/18 09:48:00;;;;;;;;;;;;;;;0.10;100.00;99872.55;1680168;84;20252;-70
2021/11/18 09:50:56;;;;;;;;;;;;;;;0.29;100.00;99868.59;1691049;83;20231;-70
2021/11/18 09:53:41;;;;;;;;;;;;;;;0.29;100.00;99872.05;1691212;83;20143;-72
2021/11/18 09:56:19;;;;;;;;;;;;;;;0.31;100.00;99863.45;1684123;83;21151;-73
2021/11/18 09:58:57;;;;;;;;;;;;;;;0.36;100.00;99860.28;1690701;85;20734;-70
2021/11/18 10:01:41;;;;;;;;;;;;;;;0.42;100.00;99859.06;1633917;86;20186;-72
2021/11/18 10:04:21;;;;;;;;;;;;;;;0.44;100.00;99856.23;1636565;86;20130;-73
2021/11/18 10:07:03;;;;;;;;;;;;;;;0.36;100.00;99852.36;1634090;87;20848;-69
2021/11/18 10:09:39;;;;;;;;;;;;;;;0.40;100.00;99849.19;1624604;87;21111;-70
2021/11/18 10:12:26;;;;;;;;;;;;;;;0.52;100.00;99840.83;1639622;87;20560;-72
2021/11/18 10:15:00;;;;;;;;;;;;;;;0.62;100.00;99844.02;1636168;87;20174;-71
2021/11/18 10:17:42;;;;;;;;;;;;;;;0.74;100.00;99837.78;1608981;88;20213;-72
2021/11/18 10:20:23;;;;;;;;;;;;;;;0.80;100.00;99837.03;1607693;87;20519;-71
2021/11/18 10:23:00;;;;;;;;;;;;;;;0.72;100.00;99829.21;1631395;87;21151;-71
2021/11/18 10:25:33;;;;;;;;;;;;;;;0.75;100.00;99834.13;1633933;87;20242;-74
2021/11/18 10:28:22;;;;;;;;;;;;;;;0.74;100.00;99822.73;1639670;85;20147;-73
2021/11/18 10:31:17;;;;;;;;;;;;;;;0.74;100.00;99821.42;1646481;87;20164;-75
2021/11/18 10:33:49;;;;;;;;;;;;;;;0.75;100.00;99815.63;1636660;87;20185;-73
2021/11/18 10:36:34;;;;;;;;;;;;;;;0.81;100.00;99822.33;1631835;86;21164;-75
2021/11/18 10:39:10;;;;;;;;;;;;;;;0.91;100.00;99817.23;1671671;85;20140;-74
2021/11/18 10:41:45;;;;;;;;;;;;;;;0.94;100.00;99818.21;1686591;83;20434;-72
2021/11/18 10:44:21;;;;;;;;;;;;;;;0.88;100.00;99813.65;1698279;84;20201;-74
2021/11/18 10:47:09;;;;;;;;;;;;;;;0.80;100.00;99813.25;1669861;84;20215;-75
2021/11/18 10:49:50;;;;;;;;;;;;;;;0.84;100.00;99817.17;1642350;84;20203;-76
2021/11/18 10:52:32;;;;;;;;;;;;;;;0.88;100.00;99806.53;1685850;84;20215;-75
2021/11/18 10:55:07;;;;;;;;;;;;;;;0.85;100.00;99798.98;1677102;84;20182;-75
2021/11/18 10:57:36;;;;;;;;;;;;;;;0.80;100.00;99777.06;1697032;84;20166;-73
2021/11/18 11:00:16;;;;;;;;;;;;;;;0.88;100.00;99790.67;1701827;83;20502;-73
2021/11/18 11:02:45;;;;;;;;;;;;;;;1.00;100.00;99789.70;1690552;83;21239;-74
2021/11/18 11:05:28;;;;;;;;;;;;;;;1.01;100.00;99790.85;1691934;83;20435;-75
2021/11/18 11:07:56;;;;;;;;;;;;;;;1.00;100.00;99795.80;1690279;85;20233;-76
2021/11/18 11:10:25;;;;;;;;;;;;;;;0.92;100.00;99776.61;1696358;83;20426;-72
2021/11/18 11:13:19;;;;;;;;;;;;;;;0.95;100.00;99778.36;1694800;83;20161;-76
2021/11/18 11:16:04;;;;;;;;;;;;;;;0.97;100.00;99781.64;1691775;84;21184;-72
2021/11/18 11:18:56;;;;;;;;;;;;;;;0.95;100.00;99781.00;1711096;84;20152;-74
2021/11/18 11:21:30;;;;;;;;;;;;;;;0.91;100.00;99777.59;1659591;86;20276;-73
2021/11/18 11:24:10;;;;;;;;;;;;;;;0.91;100.00;99778.44;1659621;86;20202;-72
2021/11/18 11:29:56;;;;;;;;;;;;;;;1.01;100.00;99778.14;1671529;84;21120;-73
2021/11/18 11:32:48;;;;;;;;;;;;;;;1.00;100.00;99777.30;1686411;83;20186;-73
2021/11/18 11:35:42;;;;;;;;;;;;;;;1.02;100.00;99775.30;1665880;84;20764;-74
2021/11/18 11:38:24;;;;;;;;;;;;;;;1.02;100.00;99775.30;1670834;84;20217;-74
2021/11/18 11:41:30;;;;;;;;;;;;;;;0.97;100.00;99764.47;1692905;84;20226;-73
2021/11/18 11:44:11;;;;;;;;;;;;;;;1.01;100.00;99763.09;1614933;87;21222;-71
2021/11/18 11:46:43;;;;;;;;;;;;;;;1.05;100.00;99757.77;1628215;88;20451;-71
2021/11/18 11:49:37;;;;;;;;;;;;;;;1.06;100.00;99748.81;1602933;89;20555;-75
2021/11/18 11:52:20;;;;;;;;;;;;;;;1.01;100.00;99747.23;1602653;88;20183;-73
2021/11/18 11:55:10;;;;;;;;;;;;;;;1.05;100.00;99741.05;1594925;88;20240;-74
2021/11/18 11:57:53;;;;;;;;;;;;;;;1.02;100.00;99744.89;1557620;90;21175;-73
2021/11/18 12:00:36;;;;;;;;;;;;;;;1.00;100.00;99736.84;1570218;89;20268;-73
2021/11/18 12:03:25;;;;;;;;;;;;;;;0.96;100.00;99737.73;1594673;89;20226;-73
2021/11/18 12:06:16;;;;;;;;;;;;;;;0.96;100.00;99728.98;1584879;88;20199;-74
2021/11/18 12:09:03;;;;;;;;;;;;;;;0.98;100.00;99732.23;1604890;88;20439;-73
2021/11/18 12:11:58;;;;;;;;;;;;;;;0.97;100.00;99730.61;1626987;87;21818;-72
2021/11/18 12:14:40;;;;;;;;;;;;;;;0.98;100.00;99755.55;1620826;86;20472;-74
2021/11/18 12:17:17;;;;;;;;;;;;;;;0.98;100.00;99735.72;1649276;86;20240;-72
2021/11/18 12:19:50;;;;;;;;;;;;;;;0.93;100.00;99731.98;1635698;84;20152;-73
2021/11/18 12:22:38;;;;;;;;;;;;;;;0.95;100.00;99741.36;1629110;86;20207;-73
2021/11/18 12:25:27;;;;;;;;;;;;;;;0.93;100.00;99721.41;1646276;86;21149;-74
2021/11/18 12:28:14;;;;;;;;;;;;;;;0.92;100.00;99731.17;1634876;87;20146;-70
2021/11/18 12:30:48;;;;;;;;;;;;;;;0.87;100.00;99719.02;1635422;86;20247;-77
2021/11/18 12:33:21;;;;;;;;;;;;;;;0.87;100.00;99734.06;1653209;85;20120;-72
2021/11/18 12:36:07;;;;;;;;;;;;;;;0.83;100.00;99717.74;1647208;85;20111;-72
2021/11/18 12:38:43;;;;;;;;;;;;;;;0.83;100.00;99721.70;1647747;87;21158;-76
2021/11/18 12:41:37;;;;;;;;;;;;;;;0.85;100.00;99726.30;1647209;86;20214;-76
2021/11/18 12:44:10;;;;;;;;;;;;;;;0.81;100.00;99717.13;1644880;86;20547;-74
2021/11/18 12:49:53;;;;;;;;;;;;;;;0.81;100.00;99715.30;1652809;86;20250;-77
2021/11/18 12:52:24;;;;;;;;;;;;;;;0.80;100.00;99718.94;1654775;85;20217;-74
2021/11/18 12:55:15;;;;;;;;;;;;;;;0.80;100.00;99729.50;1680677;84;20155;-75
2021/11/18 12:57:45;;;;;;;;;;;;;;;0.79;100.00;99725.75;1703331;84;20149;-76
2021/11/18 13:00:19;;;;;;;;;;;;;;;0.76;100.00;99731.38;1650013;85;20145;-76
2021/11/18 13:03:01;;;;;;;;;;;;;;;0.73;100.00;99729.11;1638782;86;20190;-77
2021/11/18 13:05:34;;;;;;;;;;;;;;;0.74;100.00;99732.09;1622972;86;20766;-73
2021/11/18 13:08:10;;;;;;;;;;;;;;;0.73;100.00;99723.83;1612634;88;20216;-75